sensor_id;sensor_type;location;lat;lon;timestamp;pressure;altitude;pressure_sealevel;temperature;humidity
39887;BME280;25559;44.738;20.980;2022-11-18T00:01:47;99488.50;;;9.20;100.00
39887;BME280;25559;44.738;20.980;2022-11-18T00:04:14;99481.91;;;9.09;100.00
39887;BME280;25559;44.738;20.980;2022-11-18T00:06:41;99482.00;;;9.05;100.00
39887;BME280;25559;44.738;20.980;2022-11-18T00:09:08;99479.47;;;9.04;100.00
39887;BME280;25559;44.738;20.980;2022-11-18T00:11:34;99484.59;;;9.05;100.00
39887;BME280;25559;44.738;20.980;2022-11-18T00:14:22;99484.66;;;9.02;100.00
39887;BME280;25559;44.738;20.980;2022-11-18T00:16:52;99477.75;;;9.03;100.00
39887;BME280;25559;44.738;20.980;2022-11-18T00:19:21;99483.00;;;9.00;100.00
39887;BME280;25559;44.738;20.980;2022-11-18T00:21:49;99474.38;;;9.01;100.00
39887;BME280;25559;44.738;20.980;2022-11-18T00:24:17;99477.16;;;8.93;100.00
39887;BME280;25559;44.738;20.980;2022-11-18T00:26:44;99471.31;;;8.85;100.00
39887;BME280;25559;44.738;20.980;2022-11-18T00:29:11;99469.72;;;8.81;100.00
39887;BME280;25559;44.738;20.980;2022-11-18T00:31:39;99465.44;;;8.80;100.00
39887;BME280;25559;44.738;20.980;2022-11-18T00:34:09;99467.16;;;8.81;100.00
39887;BME280;25559;44.738;20.980;2022-11-18T00:36:36;99466.47;;;8.73;100.00
39887;BME280;25559;44.738;20.980;2022-11-18T00:39:03;99461.31;;;8.73;100.00
39887;BME280;25559;44.738;20.980;2022-11-18T00:41:30;99467.44;;;8.70;100.00
39887;BME280;25559;44.738;20.980;2022-11-18T00:44:11;99465.16;;;8.56;100.00
39887;BME280;25559;44.738;20.980;2022-11-18T00:46:39;99466.75;;;8.62;100.00
39887;BME280;25559;44.738;20.980;2022-11-18T00:49:06;99454.81;;;8.58;100.00
39887;BME280;25559;44.738;20.980;2022-11-18T00:51:33;99466.88;;;8.57;100.00
39887;BME280;25559;44.738;20.980;2022-11-18T00:54:01;99453.84;;;8.62;100.00
39887;BME280;25559;44.738;20.980;2022-11-18T00:56:28;99455.34;;;8.70;100.00
39887;BME280;25559;44.738;20.980;2022-11-18T00:58:54;99451.97;;;8.67;100.00
39887;BME280;25559;44.738;20.980;2022-11-18T01:01:22;99454.56;;;8.68;100.00
39887;BME280;25559;44.738;20.980;2022-11-18T01:03:50;99454.44;;;8.73;100.00
39887;BME280;25559;44.738;20.980;2022-11-18T01:06:17;99449.22;;;8.75;100.00
39887;BME280;25559;44.738;20.980;2022-11-18T01:08:44;99448.31;;;8.76;100.00
39887;BME280;25559;44.738;20.980;2022-11-18T01:11:11;99449.28;;;8.73;100.00
39887;BME280;25559;44.738;20.980;2022-11-18T01:13:55;99446.78;;;8.70;100.00
39887;BME280;25559;44.738;20.980;2022-11-18T01:16:24;99443.13;;;8.77;100.00
39887;BME280;25559;44.738;20.980;2022-11-18T01:18:53;99443.00;;;8.82;100.00
39887;BME280;25559;44.738;20.980;2022-11-18T01:21:20;99436.13;;;8.82;100.00
39887;BME280;25559;44.738;20.980;2022-11-18T01:23:47;99441.38;;;8.79;100.00
39887;BME280;25559;44.738;20.980;2022-11-18T01:26:15;99438.75;;;8.81;100.00
39887;BME280;25559;44.738;20.980;2022-11-18T01:28:43;99436.25;;;8.78;100.00
39887;BME280;25559;44.738;20.980;2022-11-18T01:31:12;99432.78;;;8.77;100.00
39887;BME280;25559;44.738;20.980;2022-11-18T01:33:39;99431.28;;;8.70;100.00
39887;BME280;25559;44.738;20.980;2022-11-18T01:36:16;99436.31;;;8.75;100.00
39887;BME280;25559;44.738;20.980;2022-11-18T01:38:43;99432.78;;;8.77;100.00
39887;BME280;25559;44.738;20.980;2022-11-18T01:41:11;99438.78;;;8.79;100.00
39887;BME280;25559;44.738;20.980;2022-11-18T01:43:49;99435.28;;;8.80;100.00
39887;BME280;25559;44.738;20.980;2022-11-18T01:46:17;99431.91;;;8.78;100.00
39887;BME280;25559;44.738;20.980;2022-11-18T01:48:45;99429.25;;;8.81;100.00
39887;BME280;25559;44.738;20.980;2022-11-18T01:51:15;99430.19;;;8.77;100.00
39887;BME280;25559;44.738;20.980;2022-11-18T01:53:44;99419.06;;;8.75;100.00
39887;BME280;25559;44.738;20.980;2022-11-18T01:56:15;99421.69;;;8.74;100.00
39887;BME280;25559;44.738;20.980;2022-11-18T01:58:46;99420.81;;;8.75;100.00
39887;BME280;25559;44.738;20.980;2022-11-18T02:01:15;99417.13;;;8.83;100.00
39887;BME280;25559;44.738;20.980;2022-11-18T02:03:43;99410.16;;;8.87;100.00
39887;BME280;25559;44.738;20.980;2022-11-18T02:06:13;99417.00;;;8.88;100.00
39887;BME280;25559;44.738;20.980;2022-11-18T02:08:41;99413.41;;;8.94;100.00
39887;BME280;25559;44.738;20.980;2022-11-18T02:11:10;99423.75;;;8.94;100.00
39887;BME280;25559;44.738;20.980;2022-11-18T02:13:59;99418.44;;;8.98;100.00
39887;BME280;25559;44.738;20.980;2022-11-18T02:16:34;99418.50;;;8.97;100.00
39887;BME280;25559;44.738;20.980;2022-11-18T02:19:14;99412.56;;;8.93;100.00
39887;BME280;25559;44.738;20.980;2022-11-18T02:21:58;99409.09;;;8.94;100.00
39887;BME280;25559;44.738;20.980;2022-11-18T02:24:39;99408.00;;;9.03;100.00
39887;BME280;25559;44.738;20.980;2022-11-18T02:27:39;99408.84;;;9.03;100.00
39887;BME280;25559;44.738;20.980;2022-11-18T02:30:16;99405.41;;;9.03;100.00
39887;BME280;25559;44.738;20.980;2022-11-18T02:32:49;99401.97;;;9.02;100.00
39887;BME280;25559;44.738;20.980;2022-11-18T02:35:21;99408.66;;;9.11;100.00
39887;BME280;25559;44.738;20.980;2022-11-18T02:37:56;99413.81;;;9.11;100.00
39887;BME280;25559;44.738;20.980;2022-11-18T02:40:26;99418.06;;;9.12;100.00
39887;BME280;25559;44.738;20.980;2022-11-18T02:42:58;99421.09;;;9.28;100.00
39887;BME280;25559;44.738;20.980;2022-11-18T02:45:29;99411.31;;;9.38;100.00
39887;BME280;25559;44.738;20.980;2022-11-18T02:47:58;99406.97;;;9.40;100.00
39887;BME280;25559;44.738;20.980;2022-11-18T02:50:29;99401.94;;;9.35;100.00
39887;BME280;25559;44.738;20.980;2022-11-18T02:52:59;99396.13;;;9.27;100.00
39887;BME280;25559;44.738;20.980;2022-11-18T02:55:30;99399.72;;;9.21;100.00
39887;BME280;25559;44.738;20.980;2022-11-18T02:57:58;99386.78;;;9.21;100.00
39887;BME280;25559;44.738;20.980;2022-11-18T03:00:26;99390.38;;;9.17;100.00
39887;BME280;25559;44.738;20.980;2022-11-18T03:02:54;99391.44;;;9.10;100.00
39887;BME280;25559;44.738;20.980;2022-11-18T03:05:26;99381.00;;;9.13;100.00
39887;BME280;25559;44.738;20.980;2022-11-18T03:08:01;99373.22;;;9.15;100.00
39887;BME280;25559;44.738;20.980;2022-11-18T03:10:36;99366.16;;;9.20;100.00
39887;BME280;25559;44.738;20.980;2022-11-18T03:13:13;99356.69;;;9.20;100.00
39887;BME280;25559;44.738;20.980;2022-11-18T03:15:47;99345.16;;;9.02;100.00
39887;BME280;25559;44.738;20.980;2022-11-18T03:18:26;99341.78;;;9.00;100.00
39887;BME280;25559;44.738;20.980;2022-11-18T03:20:57;99356.88;;;8.83;100.00
39887;BME280;25559;44.738;20.980;2022-11-18T03:23:31;99353.75;;;8.71;100.00
39887;BME280;25559;44.738;20.980;2022-11-18T03:26:02;99352.25;;;8.63;100.00
39887;BME280;25559;44.738;20.980;2022-11-18T03:28:35;99353.97;;;8.62;100.00
39887;BME280;25559;44.738;20.980;2022-11-18T03:31:09;99356.56;;;8.62;100.00
39887;BME280;25559;44.738;20.980;2022-11-18T03:33:42;99341.69;;;8.72;100.00
39887;BME280;25559;44.738;20.980;2022-11-18T03:36:12;99347.56;;;8.77;100.00
39887;BME280;25559;44.738;20.980;2022-11-18T03:38:44;99345.06;;;8.74;100.00
39887;BME280;25559;44.738;20.980;2022-11-18T03:41:16;99341.81;;;8.67;100.00
39887;BME280;25559;44.738;20.980;2022-11-18T03:43:48;99334.91;;;8.68;100.00
39887;BME280;25559;44.738;20.980;2022-11-18T03:46:19;99331.59;;;8.63;100.00
39887;BME280;25559;44.738;20.980;2022-11-18T03:48:51;99335.16;;;8.59;100.00
39887;BME280;25559;44.738;20.980;2022-11-18T03:51:21;99335.44;;;8.48;100.00
39887;BME280;25559;44.738;20.980;2022-11-18T03:53:54;99323.66;;;8.36;100.00
39887;BME280;25559;44.738;20.980;2022-11-18T03:56:25;99329.00;;;8.30;100.00
39887;BME280;25559;44.738;20.980;2022-11-18T03:58:59;99324.94;;;8.19;100.00
39887;BME280;25559;44.738;20.980;2022-11-18T04:01:32;99321.69;;;8.13;100.00
39887;BME280;25559;44.738;20.980;2022-11-18T04:04:03;99309.63;;;8.13;100.00
39887;BME280;25559;44.738;20.980;2022-11-18T04:06:35;99304.31;;;8.19;100.00
39887;BME280;25559;44.738;20.980;2022-11-18T04:09:08;99311.31;;;8.14;100.00
39887;BME280;25559;44.738;20.980;2022-11-18T04:11:42;99332.03;;;8.11;100.00
39887;BME280;25559;44.738;20.980;2022-11-18T04:14:29;99344.19;;;8.08;100.00
39887;BME280;25559;44.738;20.980;2022-11-18T04:16:56;99338.28;;;8.03;100.00
39887;BME280;25559;44.738;20.980;2022-11-18T04:19:25;99350.25;;;8.05;100.00
39887;BME280;25559;44.738;20.980;2022-11-18T04:21:52;99339.19;;;8.00;100.00
39887;BME280;25559;44.738;20.980;2022-11-18T04:24:18;99331.47;;;7.98;100.00
39887;BME280;25559;44.738;20.980;2022-11-18T04:26:45;99341.88;;;7.95;100.00
39887;BME280;25559;44.738;20.980;2022-11-18T04:29:12;99336.03;;;7.89;100.00
39887;BME280;25559;44.738;20.980;2022-11-18T04:31:39;99336.00;;;7.90;100.00
39887;BME280;25559;44.738;20.980;2022-11-18T04:34:06;99329.28;;;7.83;100.00
39887;BME280;25559;44.738;20.980;2022-11-18T04:36:34;99329.53;;;7.72;100.00
39887;BME280;25559;44.738;20.980;2022-11-18T04:39:01;99319.31;;;7.69;100.00
39887;BME280;25559;44.738;20.980;2022-11-18T04:41:28;99320.25;;;7.65;100.00
39887;BME280;25559;44.738;20.980;2022-11-18T04:44:09;99315.09;;;7.65;100.00
39887;BME280;25559;44.738;20.980;2022-11-18T04:46:39;99307.41;;;7.63;100.00
39887;BME280;25559;44.738;20.980;2022-11-18T04:49:07;99303.69;;;7.75;100.00
39887;BME280;25559;44.738;20.980;2022-11-18T04:51:35;99326.75;;;7.81;100.00
39887;BME280;25559;44.738;20.980;2022-11-18T04:54:03;99324.97;;;7.85;100.00
39887;BME280;25559;44.738;20.980;2022-11-18T04:56:30;99318.13;;;7.82;100.00
39887;BME280;25559;44.738;20.980;2022-11-18T04:58:57;99316.44;;;7.81;100.00
39887;BME280;25559;44.738;20.980;2022-11-18T05:01:25;99321.34;;;7.91;100.00
39887;BME280;25559;44.738;20.980;2022-11-18T05:03:52;99316.25;;;7.89;100.00
39887;BME280;25559;44.738;20.980;2022-11-18T05:06:19;99318.81;;;7.89;100.00
39887;BME280;25559;44.738;20.980;2022-11-18T05:08:48;99314.50;;;7.91;100.00
39887;BME280;25559;44.738;20.980;2022-11-18T05:11:14;99317.94;;;7.90;100.00
39887;BME280;25559;44.738;20.980;2022-11-18T05:13:58;99317.19;;;7.87;100.00
39887;BME280;25559;44.738;20.980;2022-11-18T05:16:25;99322.38;;;7.85;100.00
39887;BME280;25559;44.738;20.980;2022-11-18T05:18:52;99331.03;;;7.82;100.00
39887;BME280;25559;44.738;20.980;2022-11-18T05:21:19;99316.56;;;7.75;100.00
39887;BME280;25559;44.738;20.980;2022-11-18T05:23:47;99320.84;;;7.76;100.00
39887;BME280;25559;44.738;20.980;2022-11-18T05:26:14;99318.28;;;7.76;100.00
39887;BME280;25559;44.738;20.980;2022-11-18T05:28:41;99307.97;;;7.76;100.00
39887;BME280;25559;44.738;20.980;2022-11-18T05:31:09;99304.56;;;7.74;100.00
39887;BME280;25559;44.738;20.980;2022-11-18T05:33:37;99309.72;;;7.76;100.00
39887;BME280;25559;44.738;20.980;2022-11-18T05:36:05;99303.69;;;7.75;100.00
39887;BME280;25559;44.738;20.980;2022-11-18T05:38:33;99300.88;;;7.85;100.00
39887;BME280;25559;44.738;20.980;2022-11-18T05:41:02;99305.38;;;7.76;100.00
39887;BME280;25559;44.738;20.980;2022-11-18T05:43:30;99295.22;;;7.70;100.00
39887;BME280;25559;44.738;20.980;2022-11-18T05:45:56;99290.41;;;7.91;100.00
39887;BME280;25559;44.738;20.980;2022-11-18T05:48:23;99289.56;;;8.25;100.00
39887;BME280;25559;44.738;20.980;2022-11-18T05:50:51;99288.94;;;8.49;100.00
39887;BME280;25559;44.738;20.980;2022-11-18T05:53:20;99297.84;;;8.36;100.00
39887;BME280;25559;44.738;20.980;2022-11-18T05:55:50;99292.97;;;8.25;100.00
39887;BME280;25559;44.738;20.980;2022-11-18T05:58:20;99285.28;;;8.24;100.00
39887;BME280;25559;44.738;20.980;2022-11-18T06:00:49;99284.38;;;8.26;100.00
39887;BME280;25559;44.738;20.980;2022-11-18T06:03:20;99283.41;;;8.29;100.00
39887;BME280;25559;44.738;20.980;2022-11-18T06:05:52;99281.56;;;8.34;100.00
39887;BME280;25559;44.738;20.980;2022-11-18T06:08:20;99284.00;;;8.40;100.00
39887;BME280;25559;44.738;20.980;2022-11-18T06:10:50;99289.03;;;9.06;100.00
39887;BME280;25559;44.738;20.980;2022-11-18T06:13:21;99286.44;;;9.36;100.00
39887;BME280;25559;44.738;20.980;2022-11-18T06:15:50;99291.31;;;9.73;100.00
39887;BME280;25559;44.738;20.980;2022-11-18T06:18:20;99292.03;;;9.77;100.00
39887;BME280;25559;44.738;20.980;2022-11-18T06:20:50;99293.78;;;9.76;100.00
39887;BME280;25559;44.738;20.980;2022-11-18T06:23:19;99287.00;;;9.72;100.00
39887;BME280;25559;44.738;20.980;2022-11-18T06:25:46;99290.22;;;9.79;100.00
39887;BME280;25559;44.738;20.980;2022-11-18T06:28:14;99282.91;;;9.65;100.00
39887;BME280;25559;44.738;20.980;2022-11-18T06:30:43;99280.34;;;9.92;100.00
39887;BME280;25559;44.738;20.980;2022-11-18T06:33:10;99278.31;;;11.66;100.00
39887;BME280;25559;44.738;20.980;2022-11-18T06:35:37;99284.47;;;11.41;100.00
39887;BME280;25559;44.738;20.980;2022-11-18T06:38:04;99268.13;;;11.17;100.00
39887;BME280;25559;44.738;20.980;2022-11-18T06:40:31;99278.50;;;11.17;100.00
39887;BME280;25559;44.738;20.980;2022-11-18T06:43:04;99274.34;;;12.80;100.00
39887;BME280;25559;44.738;20.980;2022-11-18T06:45:50;99267.31;;;12.64;100.00
39887;BME280;25559;44.738;20.980;2022-11-18T06:48:30;99260.13;;;12.08;100.00
39887;BME280;25559;44.738;20.980;2022-11-18T06:50:57;99262.41;;;13.33;100.00
39887;BME280;25559;44.738;20.980;2022-11-18T06:53:24;99266.97;;;13.09;99.08
39887;BME280;25559;44.738;20.980;2022-11-18T06:55:51;99267.31;;;12.83;100.00
39887;BME280;25559;44.738;20.980;2022-11-18T06:58:18;99263.25;;;13.32;98.67
39887;BME280;25559;44.738;20.980;2022-11-18T07:00:44;99251.88;;;13.89;100.00
39887;BME280;25559;44.738;20.980;2022-11-18T07:03:13;99240.75;;;15.03;91.56
39887;BME280;25559;44.738;20.980;2022-11-18T07:05:40;99247.59;;;16.13;82.84
39887;BME280;25559;44.738;20.980;2022-11-18T07:08:06;99257.28;;;14.86;88.01
39887;BME280;25559;44.738;20.980;2022-11-18T07:10:33;99249.66;;;13.81;93.32
39887;BME280;25559;44.738;20.980;2022-11-18T07:13:00;99245.56;;;14.28;91.99
39887;BME280;25559;44.738;20.980;2022-11-18T07:15:27;99231.31;;;15.63;87.67
39887;BME280;25559;44.738;20.980;2022-11-18T07:17:54;99211.31;;;17.08;80.46
39887;BME280;25559;44.738;20.980;2022-11-18T07:20:22;99215.22;;;17.15;71.17
39887;BME280;25559;44.738;20.980;2022-11-18T07:22:51;99216.69;;;16.48;73.69
39887;BME280;25559;44.738;20.980;2022-11-18T07:25:18;99210.78;;;14.63;80.64
39887;BME280;25559;44.738;20.980;2022-11-18T07:27:45;99194.38;;;14.27;83.94
39887;BME280;25559;44.738;20.980;2022-11-18T07:30:12;99196.28;;;13.90;86.31
39887;BME280;25559;44.738;20.980;2022-11-18T07:32:39;99197.34;;;13.86;88.09
39887;BME280;25559;44.738;20.980;2022-11-18T07:35:07;99209.59;;;13.49;89.37
39887;BME280;25559;44.738;20.980;2022-11-18T07:37:35;99217.06;;;12.44;96.43
39887;BME280;25559;44.738;20.980;2022-11-18T07:40:03;99212.94;;;12.59;97.98
39887;BME280;25559;44.738;20.980;2022-11-18T07:42:30;99205.28;;;12.56;99.49
39887;BME280;25559;44.738;20.980;2022-11-18T07:45:20;99190.88;;;13.42;100.00
39887;BME280;25559;44.738;20.980;2022-11-18T07:47:48;99198.97;;;13.36;96.53
39887;BME280;25559;44.738;20.980;2022-11-18T07:50:15;99189.63;;;13.49;94.88
39887;BME280;25559;44.738;20.980;2022-11-18T07:52:43;99191.53;;;13.81;94.46
39887;BME280;25559;44.738;20.980;2022-11-18T07:55:10;99203.41;;;15.33;83.99
39887;BME280;25559;44.738;20.980;2022-11-18T07:57:37;99199.59;;;14.61;87.01
39887;BME280;25559;44.738;20.980;2022-11-18T08:00:05;99193.16;;;13.83;90.55
39887;BME280;25559;44.738;20.980;2022-11-18T08:02:37;99203.38;;;13.34;93.12
39887;BME280;25559;44.738;20.980;2022-11-18T08:05:05;99189.56;;;13.14;97.06
39887;BME280;25559;44.738;20.980;2022-11-18T08:07:32;99181.22;;;13.25;97.15
39887;BME280;25559;44.738;20.980;2022-11-18T08:10:00;99183.16;;;13.22;97.11
39887;BME280;25559;44.738;20.980;2022-11-18T08:12:27;99184.75;;;12.88;98.93
39887;BME280;25559;44.738;20.980;2022-11-18T08:14:55;99177.41;;;12.40;100.00
39887;BME280;25559;44.738;20.980;2022-11-18T08:17:22;99168.81;;;12.76;100.00
39887;BME280;25559;44.738;20.980;2022-11-18T08:19:49;99167.09;;;12.94;100.00
39887;BME280;25559;44.738;20.980;2022-11-18T08:22:16;99167.00;;;12.78;100.00
39887;BME280;25559;44.738;20.980;2022-11-18T08:24:45;99170.50;;;12.77;100.00
39887;BME280;25559;44.738;20.980;2022-11-18T08:27:13;99173.31;;;12.73;100.00
39887;BME280;25559;44.738;20.980;2022-11-18T08:29:40;99176.34;;;12.44;100.00
39887;BME280;25559;44.738;20.980;2022-11-18T08:32:07;99183.00;;;12.31;100.00
39887;BME280;25559;44.738;20.980;2022-11-18T08:34:34;99163.00;;;12.71;100.00
39887;BME280;25559;44.738;20.980;2022-11-18T08:37:01;99176.69;;;12.94;100.00
39887;BME280;25559;44.738;20.980;2022-11-18T08:39:28;99172.81;;;12.84;100.00
39887;BME280;25559;44.738;20.980;2022-11-18T08:41:57;99187.22;;;12.91;100.00
39887;BME280;25559;44.738;20.980;2022-11-18T08:44:25;99177.88;;;12.49;100.00
39887;BME280;25559;44.738;20.980;2022-11-18T08:46:52;99180.63;;;12.65;100.00
39887;BME280;25559;44.738;20.980;2022-11-18T08:49:19;99193.00;;;12.59;100.00
39887;BME280;25559;44.738;20.980;2022-11-18T08:51:45;99201.41;;;12.46;100.00
39887;BME280;25559;44.738;20.980;2022-11-18T08:54:12;99190.06;;;12.48;100.00
39887;BME280;25559;44.738;20.980;2022-11-18T08:56:39;99199.56;;;12.48;100.00
39887;BME280;25559;44.738;20.980;2022-11-18T08:59:06;99205.91;;;12.42;100.00
39887;BME280;25559;44.738;20.980;2022-11-18T09:01:36;99190.75;;;12.52;100.00
39887;BME280;25559;44.738;20.980;2022-11-18T09:04:05;99184.00;;;12.67;100.00
39887;BME280;25559;44.738;20.980;2022-11-18T09:06:33;99171.06;;;12.84;100.00
39887;BME280;25559;44.738;20.980;2022-11-18T09:09:00;99180.69;;;12.82;100.00
39887;BME280;25559;44.738;20.980;2022-11-18T09:11:27;99186.31;;;12.73;100.00
39887;BME280;25559;44.738;20.980;2022-11-18T09:13:55;99183.47;;;12.96;100.00
39887;BME280;25559;44.738;20.980;2022-11-18T09:16:22;99179.44;;;13.08;100.00
39887;BME280;25559;44.738;20.980;2022-11-18T09:18:51;99186.56;;;13.22;100.00
39887;BME280;25559;44.738;20.980;2022-11-18T09:21:18;99179.06;;;13.35;100.00
39887;BME280;25559;44.738;20.980;2022-11-18T09:23:45;99170.88;;;13.43;99.34
39887;BME280;25559;44.738;20.980;2022-11-18T09:26:14;99175.03;;;13.47;100.00
39887;BME280;25559;44.738;20.980;2022-11-18T09:28:42;99164.47;;;13.50;99.00
39887;BME280;25559;44.738;20.980;2022-11-18T09:31:11;99147.94;;;13.33;97.13
39887;BME280;25559;44.738;20.980;2022-11-18T09:33:39;99162.63;;;13.15;97.24
39887;BME280;25559;44.738;20.980;2022-11-18T09:36:13;99151.34;;;12.97;99.55
39887;BME280;25559;44.738;20.980;2022-11-18T09:38:41;99155.13;;;12.73;99.43
39887;BME280;25559;44.738;20.980;2022-11-18T09:41:19;99151.19;;;12.64;100.00
39887;BME280;25559;44.738;20.980;2022-11-18T09:43:57;99144.72;;;12.54;100.00
39887;BME280;25559;44.738;20.980;2022-11-18T09:46:32;99141.06;;;12.39;100.00
39887;BME280;25559;44.738;20.980;2022-11-18T09:49:07;99133.09;;;12.43;100.00
39887;BME280;25559;44.738;20.980;2022-11-18T09:51:41;99138.69;;;12.34;100.00
39887;BME280;25559;44.738;20.980;2022-11-18T09:54:10;99138.75;;;12.33;100.00
39887;BME280;25559;44.738;20.980;2022-11-18T09:56:39;99133.38;;;12.56;100.00
39887;BME280;25559;44.738;20.980;2022-11-18T09:59:10;99135.81;;;12.78;100.00
39887;BME280;25559;44.738;20.980;2022-11-18T10:01:38;99120.91;;;13.00;100.00
39887;BME280;25559;44.738;20.980;2022-11-18T10:04:12;99111.38;;;13.00;100.00
39887;BME280;25559;44.738;20.980;2022-11-18T10:06:41;99106.03;;;13.03;100.00
39887;BME280;25559;44.738;20.980;2022-11-18T10:09:25;99111.84;;;13.26;100.00
39887;BME280;25559;44.738;20.980;2022-11-18T10:12:12;99114.63;;;13.40;98.73
39887;BME280;25559;44.738;20.980;2022-11-18T10:14:53;99105.06;;;13.58;99.40
39887;BME280;25559;44.738;20.980;2022-11-18T10:17:36;99097.56;;;13.70;97.51
39887;BME280;25559;44.738;20.980;2022-11-18T10:20:19;99100.25;;;13.84;97.21
39887;BME280;25559;44.738;20.980;2022-11-18T10:22:52;99103.16;;;13.95;96.19
39887;BME280;25559;44.738;20.980;2022-11-18T10:25:19;99100.88;;;14.05;95.35
39887;BME280;25559;44.738;20.980;2022-11-18T10:27:48;99097.03;;;14.12;94.83
39887;BME280;25559;44.738;20.980;2022-11-18T10:30:18;99094.28;;;14.15;95.06
39887;BME280;25559;44.738;20.980;2022-11-18T10:32:58;99084.59;;;14.01;94.09
39887;BME280;25559;44.738;20.980;2022-11-18T10:35:27;99079.63;;;13.97;97.94
39887;BME280;25559;44.738;20.980;2022-11-18T10:38:15;99060.22;;;13.86;95.26
39887;BME280;25559;44.738;20.980;2022-11-18T10:40:44;99059.84;;;13.77;96.84
39887;BME280;25559;44.738;20.980;2022-11-18T10:43:41;99050.03;;;13.82;96.99
39887;BME280;25559;44.738;20.980;2022-11-18T10:46:16;99034.59;;;13.79;98.98
39887;BME280;25559;44.738;20.980;2022-11-18T10:48:43;99029.53;;;13.76;98.91
39887;BME280;25559;44.738;20.980;2022-11-18T10:51:21;99027.44;;;13.66;100.00
39887;BME280;25559;44.738;20.980;2022-11-18T10:53:50;99003.31;;;13.63;100.00
39887;BME280;25559;44.738;20.980;2022-11-18T10:56:16;98985.50;;;13.55;100.00
39887;BME280;25559;44.738;20.980;2022-11-18T10:58:46;98974.66;;;13.47;100.00
39887;BME280;25559;44.738;20.980;2022-11-18T11:01:19;98990.53;;;13.42;100.00
39887;BME280;25559;44.738;20.980;2022-11-18T11:03:58;99001.00;;;13.41;100.00
39887;BME280;25559;44.738;20.980;2022-11-18T11:06:32;99011.19;;;13.45;100.00
39887;BME280;25559;44.738;20.980;2022-11-18T11:09:04;99006.72;;;13.47;100.00
39887;BME280;25559;44.738;20.980;2022-11-18T11:11:33;98992.09;;;13.45;100.00
39887;BME280;25559;44.738;20.980;2022-11-18T11:14:14;98968.03;;;13.41;100.00
39887;BME280;25559;44.738;20.980;2022-11-18T11:16:47;98972.81;;;13.31;100.00
39887;BME280;25559;44.738;20.980;2022-11-18T11:19:17;98971.16;;;13.30;100.00
39887;BME280;25559;44.738;20.980;2022-11-18T11:21:46;98978.19;;;13.28;100.00
39887;BME280;25559;44.738;20.980;2022-11-18T11:24:14;98982.91;;;13.04;100.00
39887;BME280;25559;44.738;20.980;2022-11-18T11:26:48;98983.59;;;12.90;100.00
39887;BME280;25559;44.738;20.980;2022-11-18T11:29:31;98986.50;;;13.02;100.00
39887;BME280;25559;44.738;20.980;2022-11-18T11:32:07;98976.44;;;13.11;100.00
39887;BME280;25559;44.738;20.980;2022-11-18T11:34:42;98969.34;;;13.15;100.00
39887;BME280;25559;44.738;20.980;2022-11-18T11:37:16;98962.38;;;13.15;100.00
39887;BME280;25559;44.738;20.980;2022-11-18T11:39:56;98948.06;;;13.24;100.00
39887;BME280;25559;44.738;20.980;2022-11-18T11:42:42;98945.00;;;13.33;100.00
39887;BME280;25559;44.738;20.980;2022-11-18T11:45:23;98941.50;;;13.35;100.00
39887;BME280;25559;44.738;20.980;2022-11-18T11:48:18;98941.91;;;13.43;100.00
39887;BME280;25559;44.738;20.980;2022-11-18T11:50:51;98947.78;;;13.46;100.00
39887;BME280;25559;44.738;20.980;2022-11-18T11:53:40;98942.88;;;13.58;100.00
39887;BME280;25559;44.738;20.980;2022-11-18T11:56:19;98940.69;;;13.66;100.00
39887;BME280;25559;44.738;20.980;2022-11-18T12:01:56;98939.25;;;13.76;100.00
39887;BME280;25559;44.738;20.980;2022-11-18T12:04:35;98924.81;;;13.71;100.00
39887;BME280;25559;44.738;20.980;2022-11-18T12:07:05;98904.50;;;13.61;100.00
39887;BME280;25559;44.738;20.980;2022-11-18T12:09:47;98895.06;;;13.59;100.00
39887;BME280;25559;44.738;20.980;2022-11-18T12:12:23;98891.06;;;13.53;100.00
39887;BME280;25559;44.738;20.980;2022-11-18T12:15:12;98875.63;;;13.50;100.00
39887;BME280;25559;44.738;20.980;2022-11-18T12:17:46;98866.31;;;13.46;100.00
39887;BME280;25559;44.738;20.980;2022-11-18T12:20:38;98866.13;;;13.49;100.00
39887;BME280;25559;44.738;20.980;2022-11-18T12:23:23;98865.47;;;13.45;100.00
39887;BME280;25559;44.738;20.980;2022-11-18T12:26:02;98864.34;;;13.49;100.00
39887;BME280;25559;44.738;20.980;2022-11-18T12:28:33;98847.25;;;13.45;100.00
39887;BME280;25559;44.738;20.980;2022-11-18T12:31:29;98847.66;;;13.54;100.00
39887;BME280;25559;44.738;20.980;2022-11-18T12:34:32;98845.72;;;13.57;100.00
39887;BME280;25559;44.738;20.980;2022-11-18T12:37:45;98833.66;;;13.56;100.00
39887;BME280;25559;44.738;20.980;2022-11-18T12:40:34;98833.56;;;13.58;100.00
39887;BME280;25559;44.738;20.980;2022-11-18T12:43:01;98829.75;;;13.63;100.00
39887;BME280;25559;44.738;20.980;2022-11-18T12:45:55;98823.13;;;13.74;100.00
39887;BME280;25559;44.738;20.980;2022-11-18T12:48:36;98832.44;;;13.78;100.00
39887;BME280;25559;44.738;20.980;2022-11-18T12:53:52;98818.00;;;13.72;100.00
39887;BME280;25559;44.738;20.980;2022-11-18T12:56:21;98818.78;;;13.74;100.00
39887;BME280;25559;44.738;20.980;2022-11-18T12:58:50;98812.34;;;13.80;100.00
39887;BME280;25559;44.738;20.980;2022-11-18T13:01:21;98808.19;;;13.77;100.00
39887;BME280;25559;44.738;20.980;2022-11-18T13:03:49;98802.47;;;13.86;100.00
39887;BME280;25559;44.738;20.980;2022-11-18T13:06:23;98800.59;;;13.89;100.00
39887;BME280;25559;44.738;20.980;2022-11-18T13:08:53;98793.34;;;13.94;100.00
39887;BME280;25559;44.738;20.980;2022-11-18T13:11:20;98791.59;;;13.94;100.00
39887;BME280;25559;44.738;20.980;2022-11-18T13:14:11;98784.69;;;13.93;100.00
39887;BME280;25559;44.738;20.980;2022-11-18T13:16:58;98781.19;;;13.94;100.00